createdAt,value
2019-03-13T00:01:43.279Z,5.50
2019-03-13T00:04:31.977Z,5.40
2019-03-13T00:07:20.854Z,5.40
2019-03-13T00:10:11.378Z,5.40
2019-03-13T00:13:01.193Z,5.40
2019-03-13T00:15:50.086Z,5.30
2019-03-13T00:18:39.047Z,5.30
2019-03-13T00:21:28.575Z,5.40
2019-03-13T00:24:17.576Z,5.40
2019-03-13T00:27:06.362Z,5.40
2019-03-13T00:29:55.412Z,5.40
2019-03-13T00:32:44.086Z,5.50
2019-03-13T00:35:33.599Z,5.50
2019-03-13T00:38:22.923Z,5.50
2019-03-13T00:40:53.648Z,5.50
2019-03-13T00:43:42.927Z,5.40
2019-03-13T00:46:31.929Z,5.40
2019-03-13T00:49:20.877Z,5.40
2019-03-13T00:52:10.147Z,5.40
2019-03-13T00:54:59.525Z,5.40
2019-03-13T00:57:48.609Z,5.40
2019-03-13T01:00:54.989Z,5.40
2019-03-13T01:04:02.869Z,5.40
2019-03-13T01:06:58.729Z,5.30
2019-03-13T01:09:47.645Z,5.30
2019-03-13T01:12:36.800Z,5.30
2019-03-13T01:15:07.607Z,5.30
2019-03-13T01:17:57.052Z,5.30
2019-03-13T01:20:45.632Z,5.40
2019-03-13T01:23:34.993Z,5.30
2019-03-13T01:26:23.623Z,5.40
2019-03-13T01:29:12.059Z,5.40
2019-03-13T01:32:08.041Z,5.50
2019-03-13T01:35:13.956Z,5.50
2019-03-13T01:38:02.777Z,5.60
2019-03-13T01:40:51.166Z,5.60
2019-03-13T01:43:40.261Z,5.60
2019-03-13T01:46:29.718Z,5.70
2019-03-13T01:49:18.725Z,5.60
2019-03-13T01:52:07.527Z,5.50
2019-03-13T01:54:56.133Z,5.50
2019-03-13T01:57:44.955Z,5.40
2019-03-13T02:00:34.130Z,5.40
2019-03-13T02:03:23.294Z,5.30
2019-03-13T02:06:12.146Z,5.40
2019-03-13T02:09:01.122Z,5.40
2019-03-13T02:11:49.352Z,5.40
2019-03-13T02:14:38.317Z,5.40
2019-03-13T02:17:27.712Z,5.40
2019-03-13T02:20:17.145Z,5.40
2019-03-13T02:22:50.608Z,5.40
2019-03-13T02:25:39.676Z,5.40
2019-03-13T02:28:28.563Z,5.40
2019-03-13T02:31:17.616Z,5.40
2019-03-13T02:34:06.826Z,5.40
2019-03-13T02:36:55.648Z,5.40
2019-03-13T02:39:30.939Z,5.30
2019-03-13T02:42:20.036Z,5.40
2019-03-13T02:45:09.604Z,5.40
2019-03-13T02:47:58.525Z,5.50
2019-03-13T02:50:47.340Z,5.50
2019-03-13T02:53:36.215Z,5.60
2019-03-13T02:56:25.224Z,5.60
2019-03-13T02:59:13.840Z,5.70
2019-03-13T03:02:08.902Z,5.60
2019-03-13T03:04:57.238Z,5.70
2019-03-13T03:07:46.394Z,5.70
2019-03-13T03:10:35.844Z,5.70
2019-03-13T03:13:24.776Z,5.70
2019-03-13T03:16:13.864Z,5.70
2019-03-13T03:19:02.354Z,5.80
2019-03-13T03:21:51.113Z,5.70
2019-03-13T03:24:40.094Z,5.70
2019-03-13T03:27:28.922Z,5.70
2019-03-13T03:30:20.222Z,5.60
2019-03-13T03:32:50.253Z,5.60
2019-03-13T03:35:38.932Z,5.50
2019-03-13T03:38:28.616Z,5.50
2019-03-13T03:41:17.645Z,5.50
2019-03-13T03:44:06.249Z,5.50
2019-03-13T03:46:54.749Z,5.50
2019-03-13T03:49:43.436Z,5.50
2019-03-13T03:52:32.859Z,5.40
2019-03-13T03:55:21.941Z,5.40
2019-03-13T03:58:10.450Z,5.40
2019-03-13T04:00:59.576Z,5.40
2019-03-13T04:03:48.632Z,5.40
2019-03-13T04:06:37.822Z,5.40
2019-03-13T04:09:27.399Z,5.40
2019-03-13T04:12:16.802Z,5.40
2019-03-13T04:15:06.420Z,5.60
2019-03-13T04:17:55.514Z,5.60
2019-03-13T04:20:44.515Z,5.70
2019-03-13T04:23:33.817Z,5.80
2019-03-13T04:26:23.046Z,5.80
2019-03-13T04:29:11.528Z,5.80
2019-03-13T04:32:00.631Z,5.80
2019-03-13T04:34:49.485Z,5.70
2019-03-13T04:37:37.972Z,5.70
2019-03-13T04:40:27.071Z,5.70
2019-03-13T04:42:57.579Z,5.80
2019-03-13T04:45:46.642Z,5.80
2019-03-13T04:48:34.909Z,5.90
2019-03-13T04:51:23.857Z,5.90
2019-03-13T04:54:12.834Z,5.90
2019-03-13T04:57:01.485Z,6.00
2019-03-13T04:59:50.965Z,6.10
2019-03-13T05:02:27.599Z,6.10
2019-03-13T05:05:55.588Z,6.20
2019-03-13T05:08:47.061Z,6.20
2019-03-13T05:11:35.792Z,6.20
2019-03-13T05:14:26.885Z,6.20
2019-03-13T05:17:15.366Z,6.30
2019-03-13T05:20:05.104Z,6.30
2019-03-13T05:22:54.425Z,6.30
2019-03-13T05:25:44.044Z,6.30
2019-03-13T05:28:32.576Z,6.30
2019-03-13T05:31:21.070Z,6.30
2019-03-13T05:34:09.629Z,6.40
2019-03-13T05:36:58.278Z,6.40
2019-03-13T05:39:47.312Z,6.40
2019-03-13T05:42:35.598Z,6.40
2019-03-13T05:45:08.418Z,6.40
2019-03-13T05:47:37.851Z,6.40
2019-03-13T05:50:08.652Z,6.40
2019-03-13T05:52:57.324Z,6.10
2019-03-13T05:55:46.679Z,6.40
2019-03-13T05:58:35.989Z,6.40
2019-03-13T06:01:06.652Z,6.40
2019-03-13T06:03:55.782Z,6.40
2019-03-13T06:06:45.224Z,6.40
2019-03-13T06:09:34.070Z,6.40
2019-03-13T06:12:23.141Z,6.40
2019-03-13T06:15:12.712Z,6.50
2019-03-13T06:18:01.928Z,6.50
2019-03-13T06:20:51.443Z,6.50
2019-03-13T06:23:40.368Z,6.50
2019-03-13T06:26:29.739Z,6.50
2019-03-13T06:29:18.889Z,6.50
2019-03-13T06:32:08.059Z,6.60
2019-03-13T06:34:57.424Z,6.50
2019-03-13T06:37:46.812Z,6.50
2019-03-13T06:40:35.974Z,6.50
2019-03-13T06:43:24.719Z,6.60
2019-03-13T06:46:13.575Z,6.60
2019-03-13T06:49:02.529Z,6.70
2019-03-13T06:51:51.632Z,6.70
2019-03-13T06:54:40.774Z,6.70
2019-03-13T06:57:29.679Z,6.70
2019-03-13T07:00:41.222Z,6.60
2019-03-13T07:03:38.470Z,6.60
2019-03-13T07:06:43.136Z,6.60
2019-03-13T07:09:46.697Z,6.60
2019-03-13T07:12:45.772Z,6.60
2019-03-13T07:15:42.806Z,6.60
2019-03-13T07:18:43.532Z,6.60
2019-03-13T07:21:43.703Z,6.60
2019-03-13T07:24:55.006Z,6.50
2019-03-13T07:28:21.647Z,6.40
2019-03-13T07:31:29.420Z,6.30
2019-03-13T07:34:37.115Z,6.30
2019-03-13T07:37:42.809Z,6.40
2019-03-13T07:40:38.417Z,6.50
2019-03-13T07:43:54.050Z,6.60
2019-03-13T07:46:58.286Z,6.70
2019-03-13T07:50:12.047Z,6.80
2019-03-13T07:53:09.020Z,6.80
2019-03-13T07:56:16.704Z,6.80
2019-03-13T07:59:33.727Z,6.80
2019-03-13T08:02:38.390Z,6.80
2019-03-13T08:05:34.603Z,6.90
2019-03-13T08:08:40.570Z,6.90
2019-03-13T08:11:48.466Z,6.70
2019-03-13T08:14:51.838Z,6.70
2019-03-13T08:18:07.064Z,6.70
2019-03-13T08:21:14.212Z,6.80
2019-03-13T08:24:17.133Z,6.70
2019-03-13T08:27:19.426Z,6.60
2019-03-13T08:30:30.941Z,6.40
2019-03-13T08:33:45.523Z,6.30
2019-03-13T08:37:05.991Z,6.30
2019-03-13T08:40:13.927Z,6.30
2019-03-13T08:43:17.930Z,6.30
2019-03-13T08:46:22.474Z,6.30
2019-03-13T08:49:21.328Z,6.30
2019-03-13T08:52:29.617Z,6.40
2019-03-13T08:55:42.742Z,6.50
2019-03-13T08:59:02.860Z,6.60
2019-03-13T09:02:20.477Z,6.70
2019-03-13T09:05:18.402Z,6.70
2019-03-13T09:08:22.816Z,6.80
2019-03-13T09:11:36.916Z,6.90
2019-03-13T09:14:51.311Z,6.90
2019-03-13T09:17:53.742Z,6.90
2019-03-13T09:21:08.284Z,6.80
2019-03-13T09:24:19.241Z,6.80
2019-03-13T09:27:33.027Z,6.90
2019-03-13T09:30:59.325Z,7.00
2019-03-13T09:34:01.245Z,7.10
2019-03-13T09:37:23.581Z,7.20
2019-03-13T09:40:30.322Z,7.10
2019-03-13T09:43:50.571Z,6.80
2019-03-13T09:47:10.589Z,6.50
2019-03-13T09:50:14.283Z,6.20
2019-03-13T09:53:22.455Z,6.20
2019-03-13T09:56:33.098Z,6.10
2019-03-13T09:59:48.920Z,6.20
2019-03-13T10:03:00.664Z,6.20
2019-03-13T10:05:49.665Z,6.30
2019-03-13T10:08:34.872Z,6.30
2019-03-13T10:11:16.193Z,6.30
2019-03-13T10:14:26.616Z,6.40
2019-03-13T10:17:10.752Z,6.50
2019-03-13T10:19:50.523Z,6.60
2019-03-13T10:22:51.262Z,6.70
2019-03-13T10:25:49.423Z,6.90
2019-03-13T10:28:25.669Z,7.00
2019-03-13T10:31:26.128Z,7.10
2019-03-13T10:34:20.877Z,7.10
2019-03-13T10:37:00.061Z,7.10
2019-03-13T10:39:51.957Z,7.10
2019-03-13T10:42:39.775Z,7.10
2019-03-13T10:45:46.940Z,7.10
2019-03-13T10:48:21.287Z,7.10
2019-03-13T10:51:13.298Z,7.10
2019-03-13T10:54:01.304Z,7.10
2019-03-13T10:57:01.010Z,7.20
2019-03-13T10:59:41.261Z,7.40
2019-03-13T11:02:35.037Z,7.60
2019-03-13T11:05:33.992Z,7.70
2019-03-13T11:08:30.641Z,7.70
2019-03-13T11:11:08.384Z,7.80
2019-03-13T11:14:00.646Z,7.90
2019-03-13T11:16:52.713Z,7.90
2019-03-13T11:19:40.694Z,7.80
2019-03-13T11:22:27.191Z,7.80
2019-03-13T11:25:01.625Z,7.80
2019-03-13T11:27:44.405Z,7.80
2019-03-13T11:30:46.635Z,7.80
2019-03-13T11:33:39.897Z,7.80
2019-03-13T11:36:19.721Z,7.70
2019-03-13T11:39:04.759Z,7.60
2019-03-13T11:41:54.024Z,7.70
2019-03-13T11:44:37.473Z,7.70
2019-03-13T11:47:25.242Z,7.70
2019-03-13T11:50:20.894Z,7.70
2019-03-13T11:53:04.070Z,7.70
2019-03-13T11:55:40.492Z,7.70
2019-03-13T11:58:15.999Z,7.80
2019-03-13T12:01:10.307Z,7.90
2019-03-13T12:03:58.363Z,8.00
2019-03-13T12:06:56.790Z,8.10
2019-03-13T12:09:49.286Z,8.10
2019-03-13T12:12:36.847Z,8.10
2019-03-13T12:15:33.906Z,8.10
2019-03-13T12:18:12.476Z,8.00
2019-03-13T12:21:01.777Z,8.00
2019-03-13T12:23:50.263Z,7.80
2019-03-13T12:26:51.958Z,7.50
2019-03-13T12:29:35.800Z,7.10
2019-03-13T12:32:31.234Z,6.80
2019-03-13T12:35:23.234Z,6.70
2019-03-13T12:38:14.805Z,6.50
2019-03-13T12:41:03.584Z,6.40
2019-03-13T12:43:53.149Z,6.40
2019-03-13T12:47:01.148Z,6.40
2019-03-13T12:49:48.164Z,6.40
2019-03-13T12:52:49.071Z,6.50
2019-03-13T12:55:27.072Z,6.50
2019-03-13T12:58:12.623Z,6.40
2019-03-13T13:00:49.735Z,6.50
2019-03-13T13:03:27.394Z,6.50
2019-03-13T13:06:22.821Z,6.50
2019-03-13T13:09:10.616Z,6.60
2019-03-13T13:12:06.174Z,6.60
2019-03-13T13:14:48.199Z,6.80
2019-03-13T13:17:43.403Z,6.90
2019-03-13T13:20:13.953Z,7.10
2019-03-13T13:22:44.135Z,7.20
2019-03-13T13:25:14.385Z,7.30
2019-03-13T13:27:44.769Z,7.30
2019-03-13T13:30:15.679Z,7.20
2019-03-13T13:32:46.014Z,7.10
2019-03-13T13:35:16.197Z,7.10
2019-03-13T13:37:46.629Z,7.10
2019-03-13T13:40:17.071Z,7.20
2019-03-13T13:42:47.346Z,7.40
2019-03-13T13:45:44.167Z,7.40
2019-03-13T13:48:14.697Z,7.40
2019-03-13T13:50:44.944Z,7.40
2019-03-13T13:53:15.036Z,7.40
2019-03-13T13:55:45.392Z,7.30
2019-03-13T13:58:15.554Z,7.30
2019-03-13T14:00:45.738Z,7.20
2019-03-13T14:03:15.857Z,7.20
2019-03-13T14:05:46.276Z,7.20
2019-03-13T14:08:16.501Z,7.20
2019-03-13T14:10:46.544Z,7.30
2019-03-13T14:13:16.742Z,7.30
2019-03-13T14:15:46.872Z,7.30
2019-03-13T14:18:17.173Z,7.30
2019-03-13T14:20:47.489Z,7.30
2019-03-13T14:23:17.596Z,7.50
2019-03-13T14:25:48.867Z,7.70
2019-03-13T14:28:18.973Z,7.60
2019-03-13T14:30:49.097Z,7.60
2019-03-13T14:33:19.460Z,7.50
2019-03-13T14:35:50.065Z,7.40
2019-03-13T14:38:20.602Z,7.30
2019-03-13T14:40:50.985Z,7.20
2019-03-13T14:43:21.304Z,7.10
2019-03-13T14:45:51.529Z,7.00
2019-03-13T14:48:21.675Z,6.90
2019-03-13T14:50:51.901Z,6.90
2019-03-13T14:53:22.051Z,6.80
2019-03-13T14:55:55.534Z,6.80
2019-03-13T14:58:24.100Z,6.70
2019-03-13T15:00:54.325Z,6.70
2019-03-13T15:03:25.063Z,6.60
2019-03-13T15:05:55.465Z,6.60
2019-03-13T15:08:25.713Z,6.60
2019-03-13T15:10:56.095Z,6.50
2019-03-13T15:13:26.252Z,6.60
2019-03-13T15:15:56.364Z,6.50
2019-03-13T15:18:26.471Z,6.60
2019-03-13T15:20:56.482Z,6.60
2019-03-13T15:23:26.887Z,6.70
2019-03-13T15:25:57.237Z,6.70
2019-03-13T15:28:27.759Z,6.60
2019-03-13T15:30:57.832Z,6.60
2019-03-13T15:33:28.137Z,6.60
2019-03-13T15:35:58.408Z,6.60
2019-03-13T15:38:28.656Z,6.50
2019-03-13T15:40:59.358Z,6.50
2019-03-13T15:43:29.927Z,6.60
2019-03-13T15:46:00.122Z,6.50
2019-03-13T15:48:30.592Z,6.50
2019-03-13T15:51:00.807Z,6.30
2019-03-13T15:53:32.233Z,5.90
2019-03-13T15:56:02.407Z,5.70
2019-03-13T15:58:32.733Z,5.70
2019-03-13T16:01:02.728Z,5.70
2019-03-13T16:03:33.547Z,5.70
2019-03-13T16:06:03.999Z,5.70
2019-03-13T16:08:34.167Z,5.80
2019-03-13T16:11:04.195Z,5.80
2019-03-13T16:13:34.206Z,5.80
2019-03-13T16:16:05.119Z,5.80
2019-03-13T16:18:35.772Z,5.70
2019-03-13T16:21:05.887Z,5.60
2019-03-13T16:23:36.411Z,5.60
2019-03-13T16:26:09.664Z,5.50
2019-03-13T16:28:41.984Z,5.50
2019-03-13T16:31:12.403Z,5.40
2019-03-13T16:33:42.635Z,5.50
2019-03-13T16:36:13.036Z,5.40
2019-03-13T16:38:43.263Z,5.50
2019-03-13T16:41:13.520Z,5.50
2019-03-13T16:43:43.552Z,5.50
2019-03-13T16:46:17.296Z,5.50
2019-03-13T16:48:47.624Z,5.50
2019-03-13T16:51:18.082Z,5.50
2019-03-13T16:53:51.465Z,5.60
2019-03-13T16:56:20.229Z,5.60
2019-03-13T16:58:51.632Z,5.50
2019-03-13T17:01:21.620Z,5.60
2019-03-13T17:03:51.734Z,5.50
2019-03-13T17:06:25.772Z,5.40
2019-03-13T17:08:55.774Z,5.40
2019-03-13T17:11:26.210Z,5.40
2019-03-13T17:13:56.410Z,5.50
2019-03-13T17:16:26.621Z,5.50
2019-03-13T17:18:56.901Z,5.50
2019-03-13T17:21:27.186Z,5.60
2019-03-13T17:23:57.633Z,5.60
2019-03-13T17:26:27.714Z,5.60
2019-03-13T17:28:57.950Z,5.60
2019-03-13T17:31:28.279Z,5.70
2019-03-13T17:33:58.402Z,5.70
2019-03-13T17:36:28.715Z,5.70
2019-03-13T17:38:59.079Z,5.80
2019-03-13T17:41:29.292Z,5.80
2019-03-13T17:43:59.744Z,5.80
2019-03-13T17:46:29.946Z,5.80
2019-03-13T17:49:00.353Z,5.80
2019-03-13T17:51:30.436Z,5.80
2019-03-13T17:54:00.699Z,5.80
2019-03-13T17:56:31.014Z,5.70
2019-03-13T17:59:01.439Z,5.70
2019-03-13T18:01:31.972Z,5.70
2019-03-13T18:04:02.330Z,5.70
2019-03-13T18:06:32.946Z,5.70
2019-03-13T18:09:04.300Z,5.70
2019-03-13T18:11:34.629Z,5.70
2019-03-13T18:14:04.897Z,5.80
2019-03-13T18:16:36.443Z,5.80
2019-03-13T18:19:06.628Z,5.80
2019-03-13T18:21:36.929Z,5.80
2019-03-13T18:24:07.171Z,5.80
2019-03-13T18:26:37.365Z,5.80
2019-03-13T18:29:07.966Z,5.80
2019-03-13T18:31:38.199Z,5.80
2019-03-13T18:34:08.651Z,5.90
2019-03-13T18:36:39.073Z,5.90
2019-03-13T18:39:09.602Z,5.90
2019-03-13T18:41:39.860Z,5.90
2019-03-13T18:44:10.668Z,5.90
2019-03-13T18:46:41.030Z,6.00
2019-03-13T18:49:11.827Z,5.90
2019-03-13T18:51:42.397Z,5.90
2019-03-13T18:54:12.812Z,5.90
2019-03-13T18:56:43.461Z,5.90
2019-03-13T18:59:13.716Z,5.90
2019-03-13T19:01:44.308Z,5.80
2019-03-13T19:04:14.926Z,5.70
2019-03-13T19:06:46.080Z,5.60
2019-03-13T19:09:16.613Z,5.60
2019-03-13T19:11:47.710Z,5.50
2019-03-13T19:14:17.942Z,5.50
2019-03-13T19:16:48.846Z,5.50
2019-03-13T19:19:19.292Z,5.50
2019-03-13T19:21:50.374Z,5.40
2019-03-13T19:24:21.051Z,5.40
2019-03-13T19:26:51.616Z,5.40
2019-03-13T19:29:22.314Z,5.40
2019-03-13T19:31:52.713Z,5.30
2019-03-13T19:34:23.094Z,5.30
2019-03-13T19:36:53.307Z,5.30
2019-03-13T19:39:24.116Z,5.30
2019-03-13T19:41:54.372Z,5.30
2019-03-13T19:44:25.033Z,5.30
2019-03-13T19:46:55.839Z,5.20
2019-03-13T19:49:26.158Z,5.20
2019-03-13T19:51:57.764Z,5.20
2019-03-13T19:54:28.972Z,5.20
2019-03-13T19:56:59.233Z,5.10
2019-03-13T19:59:29.791Z,5.10
2019-03-13T20:02:00.409Z,5.10
2019-03-13T20:04:30.738Z,5.10
2019-03-13T20:07:01.296Z,5.10
2019-03-13T20:09:31.757Z,5.10
2019-03-13T20:12:02.682Z,5.10
2019-03-13T20:14:33.112Z,5.10
2019-03-13T20:17:03.570Z,5.00
2019-03-13T20:19:34.022Z,5.10
2019-03-13T20:22:04.366Z,5.10
2019-03-13T20:24:38.687Z,5.10
2019-03-13T20:27:08.337Z,5.10
2019-03-13T20:29:38.669Z,5.00
2019-03-13T20:32:09.513Z,5.10
2019-03-13T20:34:40.225Z,5.10
2019-03-13T20:37:10.746Z,5.10
2019-03-13T20:39:41.220Z,5.10
2019-03-13T20:42:11.467Z,5.10
2019-03-13T20:44:42.078Z,5.10
2019-03-13T20:47:15.417Z,5.10
2019-03-13T20:49:45.827Z,5.10
2019-03-13T20:52:16.298Z,5.10
2019-03-13T20:54:46.408Z,5.10
2019-03-13T20:57:16.856Z,5.10
2019-03-13T20:59:46.941Z,5.10
2019-03-13T21:02:17.274Z,5.10
2019-03-13T21:04:48.041Z,5.20
2019-03-13T21:07:18.421Z,5.10
2019-03-13T21:09:48.831Z,5.10
2019-03-13T21:12:19.369Z,5.10
2019-03-13T21:14:49.653Z,5.10
2019-03-13T21:17:20.143Z,5.10
2019-03-13T21:19:50.547Z,5.20
2019-03-13T21:22:21.268Z,5.10
2019-03-13T21:24:51.810Z,5.10
2019-03-13T21:27:22.338Z,5.10
2019-03-13T21:29:52.474Z,5.10
2019-03-13T21:32:23.106Z,5.10
2019-03-13T21:34:53.285Z,5.10
2019-03-13T21:37:23.650Z,5.10
2019-03-13T21:39:53.877Z,5.10
2019-03-13T21:42:24.197Z,5.10
2019-03-13T21:44:54.498Z,5.10
2019-03-13T21:47:24.811Z,5.10
2019-03-13T21:50:14.660Z,5.10
2019-03-13T21:53:04.234Z,5.10
2019-03-13T21:55:53.316Z,5.10
2019-03-13T21:58:42.590Z,5.10
2019-03-13T22:01:31.836Z,5.10
2019-03-13T22:04:24.332Z,5.00
2019-03-13T22:07:12.072Z,5.10
2019-03-13T22:10:00.992Z,5.10
2019-03-13T22:12:50.402Z,5.10
2019-03-13T22:15:39.394Z,5.10
2019-03-13T22:18:29.354Z,5.20
2019-03-13T22:21:19.086Z,5.20
2019-03-13T22:24:08.484Z,5.20
2019-03-13T22:26:57.403Z,5.20
2019-03-13T22:29:50.167Z,5.30
2019-03-13T22:32:39.608Z,5.20
2019-03-13T22:35:29.547Z,5.30
2019-03-13T22:38:19.398Z,5.30
2019-03-13T22:40:49.503Z,5.30
2019-03-13T22:43:38.981Z,5.30
2019-03-13T22:46:28.930Z,5.20
2019-03-13T22:49:17.762Z,5.20
2019-03-13T22:52:09.055Z,5.20
2019-03-13T22:54:58.150Z,5.10
2019-03-13T22:57:47.136Z,5.10
2019-03-13T23:01:00.458Z,5.00
2019-03-13T23:03:50.789Z,5.00
2019-03-13T23:06:39.832Z,5.00
2019-03-13T23:09:29.561Z,5.10
2019-03-13T23:12:18.932Z,5.20
2019-03-13T23:15:08.326Z,5.20
2019-03-13T23:17:57.304Z,5.20
2019-03-13T23:20:46.703Z,5.30
2019-03-13T23:23:35.458Z,5.30
2019-03-13T23:26:25.334Z,5.40
2019-03-13T23:29:14.991Z,5.40
2019-03-13T23:32:04.344Z,5.40
2019-03-13T23:34:54.487Z,5.30
2019-03-13T23:37:43.808Z,5.30
2019-03-13T23:40:33.310Z,5.30
2019-03-13T23:43:04.140Z,5.30
2019-03-13T23:45:53.607Z,5.30
2019-03-13T23:48:42.342Z,5.40
2019-03-13T23:51:31.599Z,5.30
2019-03-13T23:54:02.122Z,5.30
2019-03-13T23:56:51.003Z,5.30
2019-03-13T23:59:40.060Z,5.30
